sensor_id;sensor_type;location;lat;lon;timestamp;P1;durP1;ratioP1;P2;durP2;ratioP2
5845;SDS011;2949;50.778;7.094;2023-09-07T00:00:41;11.20;;;7.30;;
5845;SDS011;2949;50.778;7.094;2023-09-07T00:03:07;11.47;;;5.63;;
5845;SDS011;2949;50.778;7.094;2023-09-07T00:05:32;7.60;;;6.33;;
5845;SDS011;2949;50.778;7.094;2023-09-07T00:07:58;10.13;;;6.50;;
5845;SDS011;2949;50.778;7.094;2023-09-07T00:10:23;7.67;;;6.70;;
5845;SDS011;2949;50.778;7.094;2023-09-07T00:12:50;8.53;;;6.97;;
5845;SDS011;2949;50.778;7.094;2023-09-07T00:15:16;10.50;;;7.10;;
5845;SDS011;2949;50.778;7.094;2023-09-07T00:17:44;8.17;;;6.63;;
5845;SDS011;2949;50.778;7.094;2023-09-07T00:20:10;10.67;;;6.37;;
5845;SDS011;2949;50.778;7.094;2023-09-07T00:22:36;11.07;;;7.07;;
5845;SDS011;2949;50.778;7.094;2023-09-07T00:25:04;7.60;;;6.87;;
5845;SDS011;2949;50.778;7.094;2023-09-07T00:27:31;8.60;;;6.50;;
5845;SDS011;2949;50.778;7.094;2023-09-07T00:29:58;10.60;;;7.17;;
5845;SDS011;2949;50.778;7.094;2023-09-07T00:32:24;9.03;;;7.40;;
5845;SDS011;2949;50.778;7.094;2023-09-07T00:34:49;8.40;;;6.10;;
5845;SDS011;2949;50.778;7.094;2023-09-07T00:37:15;8.50;;;6.07;;
5845;SDS011;2949;50.778;7.094;2023-09-07T00:39:40;8.30;;;7.40;;
5845;SDS011;2949;50.778;7.094;2023-09-07T00:42:06;7.60;;;6.70;;
5845;SDS011;2949;50.778;7.094;2023-09-07T00:44:31;8.60;;;6.27;;
5845;SDS011;2949;50.778;7.094;2023-09-07T00:46:57;6.83;;;6.13;;
5845;SDS011;2949;50.778;7.094;2023-09-07T00:49:23;9.70;;;5.93;;
5845;SDS011;2949;50.778;7.094;2023-09-07T00:51:49;13.37;;;6.17;;
5845;SDS011;2949;50.778;7.094;2023-09-07T00:54:15;9.43;;;6.43;;
5845;SDS011;2949;50.778;7.094;2023-09-07T00:56:41;6.83;;;5.90;;
5845;SDS011;2949;50.778;7.094;2023-09-07T00:59:07;7.40;;;5.80;;
5845;SDS011;2949;50.778;7.094;2023-09-07T01:01:33;8.00;;;6.20;;
5845;SDS011;2949;50.778;7.094;2023-09-07T01:03:59;9.50;;;6.60;;
5845;SDS011;2949;50.778;7.094;2023-09-07T01:06:38;8.53;;;6.33;;
5845;SDS011;2949;50.778;7.094;2023-09-07T01:09:11;9.63;;;6.30;;
5845;SDS011;2949;50.778;7.094;2023-09-07T01:11:42;11.83;;;6.83;;
5845;SDS011;2949;50.778;7.094;2023-09-07T01:14:07;9.40;;;7.37;;
5845;SDS011;2949;50.778;7.094;2023-09-07T01:16:33;9.50;;;7.17;;
5845;SDS011;2949;50.778;7.094;2023-09-07T01:19:00;8.33;;;6.77;;
5845;SDS011;2949;50.778;7.094;2023-09-07T01:21:27;8.70;;;7.43;;
5845;SDS011;2949;50.778;7.094;2023-09-07T01:23:59;10.77;;;7.17;;
5845;SDS011;2949;50.778;7.094;2023-09-07T01:26:25;8.97;;;7.73;;
5845;SDS011;2949;50.778;7.094;2023-09-07T01:28:51;14.63;;;8.67;;
5845;SDS011;2949;50.778;7.094;2023-09-07T01:31:16;11.43;;;8.27;;
5845;SDS011;2949;50.778;7.094;2023-09-07T01:33:42;13.80;;;8.10;;
5845;SDS011;2949;50.778;7.094;2023-09-07T01:36:07;17.17;;;9.90;;
5845;SDS011;2949;50.778;7.094;2023-09-07T01:38:33;13.20;;;8.80;;
5845;SDS011;2949;50.778;7.094;2023-09-07T01:40:58;14.27;;;8.57;;
5845;SDS011;2949;50.778;7.094;2023-09-07T01:43:24;11.57;;;8.60;;
5845;SDS011;2949;50.778;7.094;2023-09-07T01:45:50;14.57;;;9.10;;
5845;SDS011;2949;50.778;7.094;2023-09-07T01:48:16;16.37;;;9.90;;
5845;SDS011;2949;50.778;7.094;2023-09-07T01:50:41;16.40;;;8.80;;
5845;SDS011;2949;50.778;7.094;2023-09-07T01:53:07;15.40;;;8.70;;
5845;SDS011;2949;50.778;7.094;2023-09-07T01:55:32;14.17;;;8.77;;
5845;SDS011;2949;50.778;7.094;2023-09-07T01:57:58;12.03;;;8.67;;
5845;SDS011;2949;50.778;7.094;2023-09-07T02:00:24;12.30;;;9.03;;
5845;SDS011;2949;50.778;7.094;2023-09-07T02:02:50;11.60;;;8.70;;
5845;SDS011;2949;50.778;7.094;2023-09-07T02:05:15;15.60;;;8.70;;
5845;SDS011;2949;50.778;7.094;2023-09-07T02:07:41;12.53;;;8.47;;
5845;SDS011;2949;50.778;7.094;2023-09-07T02:10:07;16.53;;;8.73;;
5845;SDS011;2949;50.778;7.094;2023-09-07T02:12:33;8.70;;;7.37;;
5845;SDS011;2949;50.778;7.094;2023-09-07T02:15:01;9.27;;;7.73;;
5845;SDS011;2949;50.778;7.094;2023-09-07T02:17:28;11.23;;;8.27;;
5845;SDS011;2949;50.778;7.094;2023-09-07T02:19:54;13.77;;;8.90;;
5845;SDS011;2949;50.778;7.094;2023-09-07T02:22:20;11.63;;;8.93;;
5845;SDS011;2949;50.778;7.094;2023-09-07T02:24:46;17.87;;;8.40;;
5845;SDS011;2949;50.778;7.094;2023-09-07T02:27:11;9.60;;;7.60;;
5845;SDS011;2949;50.778;7.094;2023-09-07T02:29:37;11.40;;;7.67;;
5845;SDS011;2949;50.778;7.094;2023-09-07T02:32:02;10.43;;;7.03;;
5845;SDS011;2949;50.778;7.094;2023-09-07T02:34:28;10.20;;;7.43;;
5845;SDS011;2949;50.778;7.094;2023-09-07T02:36:54;9.10;;;6.57;;
5845;SDS011;2949;50.778;7.094;2023-09-07T02:39:22;10.57;;;6.17;;
5845;SDS011;2949;50.778;7.094;2023-09-07T02:41:51;7.53;;;5.90;;
5845;SDS011;2949;50.778;7.094;2023-09-07T02:44:17;7.37;;;5.70;;
5845;SDS011;2949;50.778;7.094;2023-09-07T02:46:42;6.80;;;5.00;;
5845;SDS011;2949;50.778;7.094;2023-09-07T02:49:08;7.00;;;5.77;;
5845;SDS011;2949;50.778;7.094;2023-09-07T02:51:33;5.53;;;5.03;;
5845;SDS011;2949;50.778;7.094;2023-09-07T02:54:00;6.27;;;4.70;;
5845;SDS011;2949;50.778;7.094;2023-09-07T02:56:27;5.67;;;5.10;;
5845;SDS011;2949;50.778;7.094;2023-09-07T02:58:53;7.10;;;6.07;;
5845;SDS011;2949;50.778;7.094;2023-09-07T03:01:18;7.13;;;5.50;;
5845;SDS011;2949;50.778;7.094;2023-09-07T03:03:46;10.30;;;5.23;;
5845;SDS011;2949;50.778;7.094;2023-09-07T03:06:12;6.73;;;5.80;;
5845;SDS011;2949;50.778;7.094;2023-09-07T03:08:39;5.77;;;4.57;;
5845;SDS011;2949;50.778;7.094;2023-09-07T03:11:05;8.67;;;5.90;;
5845;SDS011;2949;50.778;7.094;2023-09-07T03:13:32;6.67;;;5.63;;
5845;SDS011;2949;50.778;7.094;2023-09-07T03:15:57;15.73;;;5.70;;
5845;SDS011;2949;50.778;7.094;2023-09-07T03:18:24;7.70;;;5.40;;
5845;SDS011;2949;50.778;7.094;2023-09-07T03:20:49;8.00;;;6.03;;
5845;SDS011;2949;50.778;7.094;2023-09-07T03:23:16;7.80;;;5.50;;
5845;SDS011;2949;50.778;7.094;2023-09-07T03:25:41;8.07;;;4.50;;
5845;SDS011;2949;50.778;7.094;2023-09-07T03:28:07;6.93;;;4.90;;
5845;SDS011;2949;50.778;7.094;2023-09-07T03:30:32;8.07;;;4.70;;
5845;SDS011;2949;50.778;7.094;2023-09-07T03:32:58;5.47;;;4.87;;
5845;SDS011;2949;50.778;7.094;2023-09-07T03:35:24;7.13;;;5.03;;
5845;SDS011;2949;50.778;7.094;2023-09-07T03:37:49;9.20;;;5.23;;
5845;SDS011;2949;50.778;7.094;2023-09-07T03:40:15;6.70;;;4.67;;
5845;SDS011;2949;50.778;7.094;2023-09-07T03:42:40;5.40;;;4.03;;
5845;SDS011;2949;50.778;7.094;2023-09-07T03:45:07;6.27;;;4.20;;
5845;SDS011;2949;50.778;7.094;2023-09-07T03:47:33;4.70;;;4.27;;
5845;SDS011;2949;50.778;7.094;2023-09-07T03:49:58;5.80;;;4.70;;
5845;SDS011;2949;50.778;7.094;2023-09-07T03:52:24;7.67;;;4.43;;
5845;SDS011;2949;50.778;7.094;2023-09-07T03:54:51;5.27;;;4.47;;
5845;SDS011;2949;50.778;7.094;2023-09-07T03:57:19;8.07;;;5.23;;
5845;SDS011;2949;50.778;7.094;2023-09-07T03:59:45;5.60;;;4.83;;
5845;SDS011;2949;50.778;7.094;2023-09-07T04:02:11;8.00;;;4.73;;
5845;SDS011;2949;50.778;7.094;2023-09-07T04:04:37;7.33;;;4.90;;
5845;SDS011;2949;50.778;7.094;2023-09-07T04:07:03;7.37;;;4.97;;
5845;SDS011;2949;50.778;7.094;2023-09-07T04:09:29;6.70;;;4.63;;
5845;SDS011;2949;50.778;7.094;2023-09-07T04:11:54;7.33;;;4.80;;
5845;SDS011;2949;50.778;7.094;2023-09-07T04:14:20;5.17;;;4.67;;
5845;SDS011;2949;50.778;7.094;2023-09-07T04:16:45;7.90;;;5.87;;
5845;SDS011;2949;50.778;7.094;2023-09-07T04:19:11;5.27;;;4.77;;
5845;SDS011;2949;50.778;7.094;2023-09-07T04:21:36;7.40;;;4.53;;
5845;SDS011;2949;50.778;7.094;2023-09-07T04:24:03;5.47;;;4.97;;
5845;SDS011;2949;50.778;7.094;2023-09-07T04:26:29;5.83;;;5.20;;
5845;SDS011;2949;50.778;7.094;2023-09-07T04:28:55;8.60;;;5.80;;
5845;SDS011;2949;50.778;7.094;2023-09-07T04:31:21;6.03;;;5.20;;
5845;SDS011;2949;50.778;7.094;2023-09-07T04:33:46;8.67;;;6.03;;
5845;SDS011;2949;50.778;7.094;2023-09-07T04:36:15;9.60;;;5.67;;
5845;SDS011;2949;50.778;7.094;2023-09-07T04:38:41;8.63;;;5.80;;
5845;SDS011;2949;50.778;7.094;2023-09-07T04:41:07;6.47;;;5.60;;
5845;SDS011;2949;50.778;7.094;2023-09-07T04:43:33;11.30;;;6.23;;
5845;SDS011;2949;50.778;7.094;2023-09-07T04:45:59;9.80;;;6.23;;
5845;SDS011;2949;50.778;7.094;2023-09-07T04:48:24;9.60;;;7.03;;
5845;SDS011;2949;50.778;7.094;2023-09-07T04:53:27;7.60;;;6.40;;
5845;SDS011;2949;50.778;7.094;2023-09-07T04:55:53;12.53;;;7.13;;
5845;SDS011;2949;50.778;7.094;2023-09-07T04:58:19;8.97;;;6.60;;
5845;SDS011;2949;50.778;7.094;2023-09-07T05:00:44;8.43;;;6.60;;
5845;SDS011;2949;50.778;7.094;2023-09-07T05:03:10;11.70;;;7.60;;
5845;SDS011;2949;50.778;7.094;2023-09-07T05:05:35;7.70;;;6.27;;
5845;SDS011;2949;50.778;7.094;2023-09-07T05:08:01;12.43;;;6.63;;
5845;SDS011;2949;50.778;7.094;2023-09-07T05:10:26;8.30;;;6.13;;
5845;SDS011;2949;50.778;7.094;2023-09-07T05:12:52;7.43;;;6.57;;
5845;SDS011;2949;50.778;7.094;2023-09-07T05:15:17;8.00;;;5.53;;
5845;SDS011;2949;50.778;7.094;2023-09-07T05:17:43;9.43;;;5.83;;
5845;SDS011;2949;50.778;7.094;2023-09-07T05:20:08;5.33;;;4.83;;
5845;SDS011;2949;50.778;7.094;2023-09-07T05:22:35;6.80;;;4.67;;
5845;SDS011;2949;50.778;7.094;2023-09-07T05:25:04;6.40;;;4.80;;
5845;SDS011;2949;50.778;7.094;2023-09-07T05:27:30;8.53;;;5.20;;
5845;SDS011;2949;50.778;7.094;2023-09-07T05:29:55;5.33;;;4.83;;
5845;SDS011;2949;50.778;7.094;2023-09-07T05:32:21;15.73;;;4.60;;
5845;SDS011;2949;50.778;7.094;2023-09-07T05:34:46;5.10;;;4.17;;
5845;SDS011;2949;50.778;7.094;2023-09-07T05:37:12;5.80;;;4.10;;
5845;SDS011;2949;50.778;7.094;2023-09-07T05:39:37;7.47;;;4.17;;
5845;SDS011;2949;50.778;7.094;2023-09-07T05:42:03;10.57;;;3.43;;
5845;SDS011;2949;50.778;7.094;2023-09-07T05:44:29;4.57;;;3.53;;
5845;SDS011;2949;50.778;7.094;2023-09-07T05:46:54;10.53;;;3.90;;
5845;SDS011;2949;50.778;7.094;2023-09-07T05:49:19;5.33;;;3.93;;
5845;SDS011;2949;50.778;7.094;2023-09-07T05:51:45;4.70;;;3.87;;
5845;SDS011;2949;50.778;7.094;2023-09-07T05:54:10;5.37;;;4.37;;
5845;SDS011;2949;50.778;7.094;2023-09-07T05:56:36;4.27;;;3.80;;
5845;SDS011;2949;50.778;7.094;2023-09-07T05:59:01;6.37;;;3.93;;
5845;SDS011;2949;50.778;7.094;2023-09-07T06:01:27;6.20;;;4.03;;
5845;SDS011;2949;50.778;7.094;2023-09-07T06:03:53;5.00;;;4.07;;
5845;SDS011;2949;50.778;7.094;2023-09-07T06:06:19;6.33;;;3.53;;
5845;SDS011;2949;50.778;7.094;2023-09-07T06:08:44;4.47;;;3.73;;
5845;SDS011;2949;50.778;7.094;2023-09-07T06:11:10;5.27;;;2.97;;
5845;SDS011;2949;50.778;7.094;2023-09-07T06:13:35;4.40;;;3.60;;
5845;SDS011;2949;50.778;7.094;2023-09-07T06:16:01;5.60;;;3.80;;
5845;SDS011;2949;50.778;7.094;2023-09-07T06:18:26;3.50;;;3.20;;
5845;SDS011;2949;50.778;7.094;2023-09-07T06:20:52;5.70;;;3.37;;
5845;SDS011;2949;50.778;7.094;2023-09-07T06:23:17;3.43;;;3.23;;
5845;SDS011;2949;50.778;7.094;2023-09-07T06:25:43;3.33;;;3.03;;
5845;SDS011;2949;50.778;7.094;2023-09-07T06:28:08;4.93;;;2.90;;
5845;SDS011;2949;50.778;7.094;2023-09-07T06:30:34;4.87;;;2.83;;
5845;SDS011;2949;50.778;7.094;2023-09-07T06:32:59;7.33;;;2.70;;
5845;SDS011;2949;50.778;7.094;2023-09-07T06:35:25;4.90;;;3.00;;
5845;SDS011;2949;50.778;7.094;2023-09-07T06:37:50;5.97;;;3.30;;
5845;SDS011;2949;50.778;7.094;2023-09-07T06:40:16;9.57;;;3.83;;
5845;SDS011;2949;50.778;7.094;2023-09-07T06:42:42;3.40;;;3.10;;
5845;SDS011;2949;50.778;7.094;2023-09-07T06:45:09;3.50;;;3.20;;
5845;SDS011;2949;50.778;7.094;2023-09-07T06:47:35;8.73;;;3.67;;
5845;SDS011;2949;50.778;7.094;2023-09-07T06:50:01;3.40;;;3.10;;
5845;SDS011;2949;50.778;7.094;2023-09-07T06:52:27;5.57;;;2.60;;
5845;SDS011;2949;50.778;7.094;2023-09-07T06:54:53;6.10;;;2.80;;
5845;SDS011;2949;50.778;7.094;2023-09-07T06:57:18;2.83;;;2.53;;
5845;SDS011;2949;50.778;7.094;2023-09-07T06:59:44;8.43;;;3.43;;
5845;SDS011;2949;50.778;7.094;2023-09-07T07:02:10;2.80;;;2.50;;
5845;SDS011;2949;50.778;7.094;2023-09-07T07:04:35;2.93;;;2.50;;
5845;SDS011;2949;50.778;7.094;2023-09-07T07:07:01;3.80;;;2.40;;
5845;SDS011;2949;50.778;7.094;2023-09-07T07:09:29;3.80;;;2.80;;
5845;SDS011;2949;50.778;7.094;2023-09-07T07:11:55;6.83;;;3.10;;
5845;SDS011;2949;50.778;7.094;2023-09-07T07:14:21;3.50;;;2.77;;
5845;SDS011;2949;50.778;7.094;2023-09-07T07:16:46;4.00;;;3.57;;
5845;SDS011;2949;50.778;7.094;2023-09-07T07:19:12;4.67;;;2.90;;
5845;SDS011;2949;50.778;7.094;2023-09-07T07:21:38;2.40;;;2.20;;
5845;SDS011;2949;50.778;7.094;2023-09-07T07:24:03;5.33;;;3.20;;
5845;SDS011;2949;50.778;7.094;2023-09-07T07:26:32;2.70;;;2.50;;
5845;SDS011;2949;50.778;7.094;2023-09-07T07:28:57;3.47;;;3.00;;
5845;SDS011;2949;50.778;7.094;2023-09-07T07:31:23;5.50;;;2.53;;
5845;SDS011;2949;50.778;7.094;2023-09-07T07:33:48;3.40;;;2.97;;
5845;SDS011;2949;50.778;7.094;2023-09-07T07:36:15;4.03;;;2.93;;
5845;SDS011;2949;50.778;7.094;2023-09-07T07:38:40;4.53;;;2.80;;
5845;SDS011;2949;50.778;7.094;2023-09-07T07:41:06;4.87;;;3.20;;
5845;SDS011;2949;50.778;7.094;2023-09-07T07:43:32;3.10;;;2.80;;
5845;SDS011;2949;50.778;7.094;2023-09-07T07:45:58;6.20;;;3.10;;
5845;SDS011;2949;50.778;7.094;2023-09-07T07:48:24;5.03;;;2.70;;
5845;SDS011;2949;50.778;7.094;2023-09-07T07:50:50;5.17;;;2.90;;
5845;SDS011;2949;50.778;7.094;2023-09-07T07:53:15;3.90;;;3.20;;
5845;SDS011;2949;50.778;7.094;2023-09-07T07:55:41;4.63;;;2.80;;
5845;SDS011;2949;50.778;7.094;2023-09-07T07:58:07;4.53;;;2.90;;
5845;SDS011;2949;50.778;7.094;2023-09-07T08:00:37;5.77;;;3.00;;
5845;SDS011;2949;50.778;7.094;2023-09-07T08:03:03;3.07;;;2.57;;
5845;SDS011;2949;50.778;7.094;2023-09-07T08:05:33;3.50;;;2.60;;
5845;SDS011;2949;50.778;7.094;2023-09-07T08:08:00;3.80;;;2.53;;
5845;SDS011;2949;50.778;7.094;2023-09-07T08:10:26;5.50;;;2.70;;
5845;SDS011;2949;50.778;7.094;2023-09-07T08:12:55;4.93;;;2.60;;
5845;SDS011;2949;50.778;7.094;2023-09-07T08:15:22;7.30;;;3.13;;
5845;SDS011;2949;50.778;7.094;2023-09-07T08:17:49;9.07;;;3.20;;
5845;SDS011;2949;50.778;7.094;2023-09-07T08:20:15;3.70;;;2.93;;
5845;SDS011;2949;50.778;7.094;2023-09-07T08:22:42;7.60;;;3.00;;
5845;SDS011;2949;50.778;7.094;2023-09-07T08:25:08;2.90;;;2.43;;
5845;SDS011;2949;50.778;7.094;2023-09-07T08:27:34;12.40;;;2.97;;
5845;SDS011;2949;50.778;7.094;2023-09-07T08:30:00;3.37;;;2.93;;
5845;SDS011;2949;50.778;7.094;2023-09-07T08:32:26;5.23;;;2.40;;
5845;SDS011;2949;50.778;7.094;2023-09-07T08:34:52;3.43;;;2.67;;
5845;SDS011;2949;50.778;7.094;2023-09-07T08:37:21;5.53;;;3.10;;
5845;SDS011;2949;50.778;7.094;2023-09-07T08:39:47;4.20;;;3.10;;
5845;SDS011;2949;50.778;7.094;2023-09-07T08:42:13;3.03;;;2.73;;
5845;SDS011;2949;50.778;7.094;2023-09-07T08:44:39;5.57;;;3.20;;
5845;SDS011;2949;50.778;7.094;2023-09-07T08:47:08;6.00;;;3.07;;
5845;SDS011;2949;50.778;7.094;2023-09-07T08:49:34;4.70;;;3.00;;
5845;SDS011;2949;50.778;7.094;2023-09-07T08:52:01;3.93;;;3.07;;
5845;SDS011;2949;50.778;7.094;2023-09-07T08:54:31;8.90;;;2.70;;
5845;SDS011;2949;50.778;7.094;2023-09-07T08:56:58;6.93;;;3.30;;
5845;SDS011;2949;50.778;7.094;2023-09-07T08:59:24;6.33;;;3.33;;
5845;SDS011;2949;50.778;7.094;2023-09-07T09:01:50;4.50;;;3.30;;
5845;SDS011;2949;50.778;7.094;2023-09-07T09:04:21;9.18;;;3.30;;
5845;SDS011;2949;50.778;7.094;2023-09-07T09:06:48;9.30;;;3.08;;
5845;SDS011;2949;50.778;7.094;2023-09-07T09:09:21;3.67;;;3.38;;
5845;SDS011;2949;50.778;7.094;2023-09-07T09:11:48;8.68;;;3.20;;
5845;SDS011;2949;50.778;7.094;2023-09-07T09:14:16;3.55;;;2.95;;
5845;SDS011;2949;50.778;7.094;2023-09-07T09:16:47;4.97;;;3.13;;
5845;SDS011;2949;50.778;7.094;2023-09-07T09:19:15;5.00;;;3.80;;
5845;SDS011;2949;50.778;7.094;2023-09-07T09:21:41;3.72;;;2.78;;
5845;SDS011;2949;50.778;7.094;2023-09-07T09:24:09;6.07;;;3.40;;
5845;SDS011;2949;50.778;7.094;2023-09-07T09:26:38;2.75;;;2.55;;
5845;SDS011;2949;50.778;7.094;2023-09-07T09:29:04;5.47;;;3.17;;
5845;SDS011;2949;50.778;7.094;2023-09-07T09:31:30;5.68;;;2.80;;
5845;SDS011;2949;50.778;7.094;2023-09-07T09:33:56;3.55;;;2.80;;
5845;SDS011;2949;50.778;7.094;2023-09-07T09:36:22;18.38;;;3.35;;
5845;SDS011;2949;50.778;7.094;2023-09-07T09:38:49;8.05;;;2.83;;
5845;SDS011;2949;50.778;7.094;2023-09-07T09:41:18;4.40;;;2.40;;
5845;SDS011;2949;50.778;7.094;2023-09-07T09:43:45;6.35;;;2.78;;
5845;SDS011;2949;50.778;7.094;2023-09-07T09:46:14;4.68;;;3.30;;
5845;SDS011;2949;50.778;7.094;2023-09-07T09:48:40;7.35;;;3.13;;
5845;SDS011;2949;50.778;7.094;2023-09-07T09:51:07;11.07;;;2.97;;
5845;SDS011;2949;50.778;7.094;2023-09-07T09:53:34;3.55;;;2.85;;
5845;SDS011;2949;50.778;7.094;2023-09-07T09:56:00;3.00;;;2.80;;
5845;SDS011;2949;50.778;7.094;2023-09-07T09:58:26;10.13;;;3.45;;
5845;SDS011;2949;50.778;7.094;2023-09-07T10:00:54;3.00;;;2.65;;
5845;SDS011;2949;50.778;7.094;2023-09-07T10:03:22;7.85;;;2.70;;
5845;SDS011;2949;50.778;7.094;2023-09-07T10:05:51;4.10;;;2.42;;
5845;SDS011;2949;50.778;7.094;2023-09-07T10:08:18;3.10;;;2.90;;
5845;SDS011;2949;50.778;7.094;2023-09-07T10:10:46;4.28;;;2.63;;
5845;SDS011;2949;50.778;7.094;2023-09-07T10:13:16;5.38;;;3.78;;
5845;SDS011;2949;50.778;7.094;2023-09-07T10:15:42;4.95;;;3.20;;
5845;SDS011;2949;50.778;7.094;2023-09-07T10:18:09;3.60;;;3.20;;
5845;SDS011;2949;50.778;7.094;2023-09-07T10:23:21;3.80;;;2.90;;
5845;SDS011;2949;50.778;7.094;2023-09-07T10:25:51;4.75;;;2.78;;
5845;SDS011;2949;50.778;7.094;2023-09-07T10:28:17;3.33;;;2.50;;
5845;SDS011;2949;50.778;7.094;2023-09-07T10:30:44;3.15;;;2.63;;
5845;SDS011;2949;50.778;7.094;2023-09-07T10:33:22;9.00;;;2.70;;
5845;SDS011;2949;50.778;7.094;2023-09-07T10:35:48;5.15;;;2.83;;
5845;SDS011;2949;50.778;7.094;2023-09-07T10:38:14;3.63;;;2.80;;
5845;SDS011;2949;50.778;7.094;2023-09-07T10:40:41;3.63;;;2.70;;
5845;SDS011;2949;50.778;7.094;2023-09-07T10:43:09;2.70;;;2.50;;
5845;SDS011;2949;50.778;7.094;2023-09-07T10:45:35;3.38;;;3.13;;
5845;SDS011;2949;50.778;7.094;2023-09-07T10:48:02;4.03;;;2.67;;
5845;SDS011;2949;50.778;7.094;2023-09-07T10:50:29;5.20;;;3.17;;
5845;SDS011;2949;50.778;7.094;2023-09-07T10:52:55;2.15;;;2.05;;
5845;SDS011;2949;50.778;7.094;2023-09-07T10:55:21;3.00;;;2.30;;
5845;SDS011;2949;50.778;7.094;2023-09-07T10:57:47;3.17;;;2.90;;
5845;SDS011;2949;50.778;7.094;2023-09-07T11:00:13;4.10;;;3.07;;
5845;SDS011;2949;50.778;7.094;2023-09-07T11:02:40;3.40;;;3.10;;
5845;SDS011;2949;50.778;7.094;2023-09-07T11:05:07;4.90;;;2.43;;
5845;SDS011;2949;50.778;7.094;2023-09-07T11:07:33;3.27;;;2.50;;
5845;SDS011;2949;50.778;7.094;2023-09-07T11:09:59;2.77;;;2.57;;
5845;SDS011;2949;50.778;7.094;2023-09-07T11:12:25;3.20;;;2.90;;
5845;SDS011;2949;50.778;7.094;2023-09-07T11:14:51;4.60;;;2.97;;
5845;SDS011;2949;50.778;7.094;2023-09-07T11:17:17;3.03;;;2.67;;
5845;SDS011;2949;50.778;7.094;2023-09-07T11:19:43;3.47;;;2.47;;
5845;SDS011;2949;50.778;7.094;2023-09-07T11:22:10;3.53;;;2.73;;
5845;SDS011;2949;50.778;7.094;2023-09-07T11:24:36;6.80;;;2.80;;
5845;SDS011;2949;50.778;7.094;2023-09-07T11:27:02;3.13;;;2.30;;
5845;SDS011;2949;50.778;7.094;2023-09-07T11:29:30;3.10;;;2.80;;
5845;SDS011;2949;50.778;7.094;2023-09-07T11:32:05;2.93;;;2.73;;
5845;SDS011;2949;50.778;7.094;2023-09-07T11:34:31;7.33;;;2.67;;
5845;SDS011;2949;50.778;7.094;2023-09-07T11:36:57;4.00;;;2.70;;
5845;SDS011;2949;50.778;7.094;2023-09-07T11:39:23;5.47;;;3.30;;
5845;SDS011;2949;50.778;7.094;2023-09-07T11:41:49;4.37;;;3.07;;
5845;SDS011;2949;50.778;7.094;2023-09-07T11:44:15;4.67;;;2.47;;
5845;SDS011;2949;50.778;7.094;2023-09-07T11:46:41;3.00;;;2.30;;
5845;SDS011;2949;50.778;7.094;2023-09-07T11:49:07;3.10;;;2.90;;
5845;SDS011;2949;50.778;7.094;2023-09-07T11:51:34;4.43;;;2.80;;
5845;SDS011;2949;50.778;7.094;2023-09-07T11:54:01;3.23;;;2.83;;
5845;SDS011;2949;50.778;7.094;2023-09-07T11:56:27;2.80;;;2.57;;
5845;SDS011;2949;50.778;7.094;2023-09-07T11:58:53;2.67;;;2.47;;
5845;SDS011;2949;50.778;7.094;2023-09-07T12:01:20;4.13;;;2.77;;
5845;SDS011;2949;50.778;7.094;2023-09-07T12:03:46;2.50;;;2.23;;
5845;SDS011;2949;50.778;7.094;2023-09-07T12:06:12;5.43;;;2.80;;
5845;SDS011;2949;50.778;7.094;2023-09-07T12:08:41;4.70;;;2.70;;
5845;SDS011;2949;50.778;7.094;2023-09-07T12:11:08;3.27;;;2.50;;
5845;SDS011;2949;50.778;7.094;2023-09-07T12:13:34;4.53;;;3.70;;
5845;SDS011;2949;50.778;7.094;2023-09-07T12:16:00;4.23;;;2.83;;
5845;SDS011;2949;50.778;7.094;2023-09-07T12:18:27;2.80;;;2.50;;
5845;SDS011;2949;50.778;7.094;2023-09-07T12:20:53;2.73;;;2.53;;
5845;SDS011;2949;50.778;7.094;2023-09-07T12:23:19;6.47;;;2.50;;
5845;SDS011;2949;50.778;7.094;2023-09-07T12:25:45;4.73;;;3.67;;
5845;SDS011;2949;50.778;7.094;2023-09-07T12:28:15;3.00;;;2.70;;
5845;SDS011;2949;50.778;7.094;2023-09-07T12:30:41;3.83;;;2.43;;
5845;SDS011;2949;50.778;7.094;2023-09-07T12:33:10;5.70;;;2.70;;
5845;SDS011;2949;50.778;7.094;2023-09-07T12:35:36;6.63;;;2.50;;
5845;SDS011;2949;50.778;7.094;2023-09-07T12:38:02;3.83;;;3.43;;
5845;SDS011;2949;50.778;7.094;2023-09-07T12:40:28;3.30;;;3.00;;
5845;SDS011;2949;50.778;7.094;2023-09-07T12:42:54;3.00;;;2.30;;
5845;SDS011;2949;50.778;7.094;2023-09-07T12:45:20;2.70;;;2.50;;
5845;SDS011;2949;50.778;7.094;2023-09-07T12:47:46;3.63;;;3.20;;
5845;SDS011;2949;50.778;7.094;2023-09-07T12:50:12;2.90;;;2.70;;
5845;SDS011;2949;50.778;7.094;2023-09-07T12:52:38;4.60;;;3.03;;
5845;SDS011;2949;50.778;7.094;2023-09-07T12:55:04;2.60;;;2.50;;
5845;SDS011;2949;50.778;7.094;2023-09-07T12:57:31;2.93;;;2.60;;
5845;SDS011;2949;50.778;7.094;2023-09-07T12:59:57;6.07;;;2.57;;
5845;SDS011;2949;50.778;7.094;2023-09-07T13:02:23;3.13;;;2.90;;
5845;SDS011;2949;50.778;7.094;2023-09-07T13:04:49;2.40;;;2.00;;
5845;SDS011;2949;50.778;7.094;2023-09-07T13:07:15;7.07;;;3.00;;
5845;SDS011;2949;50.778;7.094;2023-09-07T13:09:42;5.13;;;2.90;;
5845;SDS011;2949;50.778;7.094;2023-09-07T13:12:08;2.60;;;2.40;;
5845;SDS011;2949;50.778;7.094;2023-09-07T13:14:34;5.43;;;4.40;;
5845;SDS011;2949;50.778;7.094;2023-09-07T13:17:00;5.43;;;2.27;;
5845;SDS011;2949;50.778;7.094;2023-09-07T13:19:26;3.57;;;3.27;;
5845;SDS011;2949;50.778;7.094;2023-09-07T13:21:52;3.53;;;2.90;;
5845;SDS011;2949;50.778;7.094;2023-09-07T13:24:17;3.13;;;2.93;;
5845;SDS011;2949;50.778;7.094;2023-09-07T13:26:46;5.10;;;2.70;;
5845;SDS011;2949;50.778;7.094;2023-09-07T13:29:12;3.33;;;2.23;;
5845;SDS011;2949;50.778;7.094;2023-09-07T13:31:38;3.43;;;2.70;;
5845;SDS011;2949;50.778;7.094;2023-09-07T13:34:04;3.03;;;2.83;;
5845;SDS011;2949;50.778;7.094;2023-09-07T13:36:30;7.83;;;2.90;;
5845;SDS011;2949;50.778;7.094;2023-09-07T13:38:56;4.60;;;2.90;;
5845;SDS011;2949;50.778;7.094;2023-09-07T13:41:22;5.63;;;2.73;;
5845;SDS011;2949;50.778;7.094;2023-09-07T13:43:48;3.17;;;2.77;;
5845;SDS011;2949;50.778;7.094;2023-09-07T13:46:14;4.43;;;2.60;;
5845;SDS011;2949;50.778;7.094;2023-09-07T13:48:40;4.10;;;2.73;;
5845;SDS011;2949;50.778;7.094;2023-09-07T13:51:06;3.70;;;3.00;;
5845;SDS011;2949;50.778;7.094;2023-09-07T13:53:32;2.97;;;2.67;;
5845;SDS011;2949;50.778;7.094;2023-09-07T13:55:58;3.60;;;2.57;;
5845;SDS011;2949;50.778;7.094;2023-09-07T13:58:24;3.03;;;2.73;;
5845;SDS011;2949;50.778;7.094;2023-09-07T14:00:50;6.53;;;2.50;;
5845;SDS011;2949;50.778;7.094;2023-09-07T14:03:16;3.40;;;2.70;;
5845;SDS011;2949;50.778;7.094;2023-09-07T14:05:42;3.40;;;2.60;;
5845;SDS011;2949;50.778;7.094;2023-09-07T14:08:08;4.07;;;2.77;;
5845;SDS011;2949;50.778;7.094;2023-09-07T14:10:34;3.90;;;3.20;;
5845;SDS011;2949;50.778;7.094;2023-09-07T14:13:00;3.10;;;2.80;;
5845;SDS011;2949;50.778;7.094;2023-09-07T14:15:25;2.87;;;2.63;;
5845;SDS011;2949;50.778;7.094;2023-09-07T14:17:51;3.27;;;2.70;;
5845;SDS011;2949;50.778;7.094;2023-09-07T14:20:17;3.33;;;3.03;;
5845;SDS011;2949;50.778;7.094;2023-09-07T14:22:43;3.30;;;3.00;;
5845;SDS011;2949;50.778;7.094;2023-09-07T14:25:09;4.50;;;3.07;;
5845;SDS011;2949;50.778;7.094;2023-09-07T14:27:35;2.77;;;2.57;;
5845;SDS011;2949;50.778;7.094;2023-09-07T14:30:01;4.77;;;2.67;;
5845;SDS011;2949;50.778;7.094;2023-09-07T14:32:27;3.37;;;2.90;;
5845;SDS011;2949;50.778;7.094;2023-09-07T14:34:53;2.90;;;2.70;;
5845;SDS011;2949;50.778;7.094;2023-09-07T14:37:19;3.10;;;2.80;;
5845;SDS011;2949;50.778;7.094;2023-09-07T14:39:45;3.67;;;3.00;;
5845;SDS011;2949;50.778;7.094;2023-09-07T14:42:12;4.43;;;3.20;;
5845;SDS011;2949;50.778;7.094;2023-09-07T14:44:41;10.33;;;3.43;;
5845;SDS011;2949;50.778;7.094;2023-09-07T14:47:07;3.30;;;3.00;;
5845;SDS011;2949;50.778;7.094;2023-09-07T14:49:34;3.43;;;3.13;;
5845;SDS011;2949;50.778;7.094;2023-09-07T14:52:00;3.10;;;2.80;;
5845;SDS011;2949;50.778;7.094;2023-09-07T14:54:26;2.87;;;2.63;;
5845;SDS011;2949;50.778;7.094;2023-09-07T14:56:52;3.20;;;2.90;;
5845;SDS011;2949;50.778;7.094;2023-09-07T14:59:18;4.17;;;2.50;;
5845;SDS011;2949;50.778;7.094;2023-09-07T15:01:44;6.40;;;2.60;;
5845;SDS011;2949;50.778;7.094;2023-09-07T15:04:10;3.30;;;3.10;;
5845;SDS011;2949;50.778;7.094;2023-09-07T15:06:36;5.70;;;3.37;;
5845;SDS011;2949;50.778;7.094;2023-09-07T15:09:02;3.93;;;2.73;;
5845;SDS011;2949;50.778;7.094;2023-09-07T15:11:29;2.70;;;2.60;;